Crown Topaz — 3FAS9 — position and weather

sailwx.info

Track history (hours):
 
Tides and Currents Weather Stations Pressure Air Temp Water Temp Dewpoint Dewpoint Depression Visibility Wind Speed Wind Dir Waves Ship Positions

Crown Topaz

Last reported at 2016-Nov-22 09:16 UTC. Time now 2016-Dec-09 02:00 UTC.
Position N 37°27' W 029°58'.
Warning: this ship's position is 16 days out of date.

Length 152 m; draft 8.3 m.

Type: Ship (hazmat cat A). MMSI: 357144000.

Date/timePositionNaut miles runAvg speedWind from/ knotsBaromVisibWave heightAir tempDewpointWater temp
2016-Nov-22 09:16N 37°27' W 029°58'1418.9
2016-Nov-22 08:34N 37°34' W 029°43'1918.6
2016-Nov-22 07:33N 37°43' W 029°23'3718.5
2016-Nov-22 05:33N 38°01' W 028°42'1918.6
2016-Nov-22 04:33N 38°10' W 028°21'1918.9
2016-Nov-22 03:33N 38°19' W 027°60'1918.8
2016-Nov-22 02:33N 38°28' W 027°39'5418.0
2016-Nov-21 23:33N 39°20' W 027°18'  
2016-Nov-18 18:33N 49°51' W 005°11'1413.8
2016-Nov-18 17:34N 49°54' W 004°50'4916.4
2016-Nov-18 14:34N 50°08' W 003°36'2411.7
2016-Nov-18 12:32N 50°30' W 003°24'0 0.0
2016-Nov-18 11:32N 50°30' W 003°24'0 0.0
2016-Nov-18 09:32N 50°30' W 003°24'0 0.0
2016-Nov-18 07:32N 50°30' W 003°24'0 0.0
2016-Nov-18 05:32N 50°30' W 003°24'0 0.0
2016-Nov-18 04:32N 50°30' W 003°24'0 0.0
2016-Nov-18 01:32N 50°30' W 003°24'0 0.0
2016-Nov-18 00:32N 50°30' W 003°24'0 0.0
2016-Nov-17 23:32N 50°30' W 003°24'0 0.0
2016-Nov-17 22:32N 50°30' W 003°24'0 0.0
2016-Nov-17 21:32N 50°30' W 003°24'0 0.0
2016-Nov-17 19:32N 50°30' W 003°24'0 0.0
2016-Nov-17 18:32N 50°30' W 003°24'0 0.0
2016-Nov-17 14:32N 50°30' W 003°24'0 0.0
2016-Nov-17 13:32N 50°30' W 003°24'0 0.0
2016-Nov-17 12:32N 50°30' W 003°24'3 3.2
2016-Nov-17 11:33N 50°27' W 003°23'12113.5
2016-Nov-17 02:33N 50°29' W 000°13'4916.5
2016-Nov-16 23:34N 50°47' E 001°00'1616.0
2016-Nov-16 22:33N 50°57' E 001°20'3819.3
2016-Nov-16 20:34N 51°26' E 001°60'1918.7
2016-Nov-16 19:33N 51°41' E 002°19'11815.8
2016-Nov-16 12:06N 53°10' E 004°24'4316.9
2016-Nov-16 09:32N 53°51' E 004°49'1716.4
2016-Nov-16 08:30N 54°07' E 005°00'29415.5
2016-Nov-15 13:31N 57°48' E 010°45'24 3.7
2016-Nov-15 07:07N 57°32' E 011°18'14912.9
2016-Nov-14 19:34N 55°03' E 011°02'2311.7
2016-Nov-14 17:33N 54°40' E 010°60'1716.8
2016-Nov-14 16:33N 54°32' E 011°26'1716.5
2016-Nov-14 15:33N 54°26' E 011°52'6815.8
2016-Nov-14 11:15N 54°59' E 013°35'4616.9
2016-Nov-14 08:34N 55°28' E 014°37'38117.3
2016-Nov-13 10:33N 59°39' E 023°31'9118.2
2016-Nov-13 05:33N 60°00' E 026°27'3717.2
2016-Nov-13 03:26N 60°10' E 027°38'5915.2
2016-Nov-12 23:33N 60°01' E 029°35'20 9.9
2016-Nov-12 21:33N 59°53' E 030°11'1 0.7
2016-Nov-12 19:32N 59°54' E 030°13'0 0.0
2016-Nov-12 17:32N 59°54' E 030°13'0 0.0
2016-Nov-12 16:32N 59°54' E 030°13'0 0.0
2016-Nov-12 15:32N 59°54' E 030°13'0 0.0
2016-Nov-12 14:29N 59°54' E 030°13'0 0.0
2016-Nov-12 13:32N 59°54' E 030°13'0 0.0
2016-Nov-12 12:32N 59°54' E 030°13'0 0.0
2016-Nov-12 11:32N 59°54' E 030°13'0 0.0
2016-Nov-12 09:32N 59°54' E 030°13'  
Track history (hours):
 
Tides and Currents Weather Stations Pressure Air Temp Water Temp Dewpoint Dewpoint Depression Visibility Wind Speed Wind Dir Waves Ship Positions

Crown Topaz

Last reported at 2016-Nov-22 09:16 UTC. Time now 2016-Dec-09 02:00 UTC.
Position N 37°27' W 029°58'.
Warning: this ship's position is 16 days out of date.

Length 152 m; draft 8.3 m.

Type: Ship (hazmat cat A). MMSI: 357144000.

Date/timePositionNaut miles runAvg speedWind from/ knotsBaromVisibWave heightAir tempDewpointWater temp
2016-Nov-22 09:16N 37°27' W 029°58'1418.9
2016-Nov-22 08:34N 37°34' W 029°43'1918.6
2016-Nov-22 07:33N 37°43' W 029°23'3718.5
2016-Nov-22 05:33N 38°01' W 028°42'1918.6
2016-Nov-22 04:33N 38°10' W 028°21'1918.9
2016-Nov-22 03:33N 38°19' W 027°60'1918.8
2016-Nov-22 02:33N 38°28' W 027°39'5418.0
2016-Nov-21 23:33N 39°20' W 027°18'  
2016-Nov-18 18:33N 49°51' W 005°11'1413.8
2016-Nov-18 17:34N 49°54' W 004°50'4916.4
2016-Nov-18 14:34N 50°08' W 003°36'2411.7
2016-Nov-18 12:32N 50°30' W 003°24'0 0.0
2016-Nov-18 11:32N 50°30' W 003°24'0 0.0
2016-Nov-18 09:32N 50°30' W 003°24'0 0.0
2016-Nov-18 07:32N 50°30' W 003°24'0 0.0
2016-Nov-18 05:32N 50°30' W 003°24'0 0.0
2016-Nov-18 04:32N 50°30' W 003°24'0 0.0
2016-Nov-18 01:32N 50°30' W 003°24'0 0.0
2016-Nov-18 00:32N 50°30' W 003°24'0 0.0
2016-Nov-17 23:32N 50°30' W 003°24'0 0.0
2016-Nov-17 22:32N 50°30' W 003°24'0 0.0
2016-Nov-17 21:32N 50°30' W 003°24'0 0.0
2016-Nov-17 19:32N 50°30' W 003°24'0 0.0
2016-Nov-17 18:32N 50°30' W 003°24'0 0.0
2016-Nov-17 14:32N 50°30' W 003°24'0 0.0
2016-Nov-17 13:32N 50°30' W 003°24'0 0.0
2016-Nov-17 12:32N 50°30' W 003°24'3 3.2
2016-Nov-17 11:33N 50°27' W 003°23'12113.5
2016-Nov-17 02:33N 50°29' W 000°13'4916.5
2016-Nov-16 23:34N 50°47' E 001°00'1616.0
2016-Nov-16 22:33N 50°57' E 001°20'3819.3
2016-Nov-16 20:34N 51°26' E 001°60'1918.7
2016-Nov-16 19:33N 51°41' E 002°19'11815.8
2016-Nov-16 12:06N 53°10' E 004°24'4316.9
2016-Nov-16 09:32N 53°51' E 004°49'1716.4
2016-Nov-16 08:30N 54°07' E 005°00'29415.5
2016-Nov-15 13:31N 57°48' E 010°45'24 3.7
2016-Nov-15 07:07N 57°32' E 011°18'14912.9
2016-Nov-14 19:34N 55°03' E 011°02'2311.7
2016-Nov-14 17:33N 54°40' E 010°60'1716.8
2016-Nov-14 16:33N 54°32' E 011°26'1716.5
2016-Nov-14 15:33N 54°26' E 011°52'6815.8
2016-Nov-14 11:15N 54°59' E 013°35'4616.9
2016-Nov-14 08:34N 55°28' E 014°37'38117.3
2016-Nov-13 10:33N 59°39' E 023°31'9118.2
2016-Nov-13 05:33N 60°00' E 026°27'3717.2
2016-Nov-13 03:26N 60°10' E 027°38'5915.2
2016-Nov-12 23:33N 60°01' E 029°35'20 9.9
2016-Nov-12 21:33N 59°53' E 030°11'1 0.7
2016-Nov-12 19:32N 59°54' E 030°13'0 0.0
2016-Nov-12 17:32N 59°54' E 030°13'0 0.0
2016-Nov-12 16:32N 59°54' E 030°13'0 0.0
2016-Nov-12 15:32N 59°54' E 030°13'0 0.0
2016-Nov-12 14:29N 59°54' E 030°13'0 0.0
2016-Nov-12 13:32N 59°54' E 030°13'0 0.0
2016-Nov-12 12:32N 59°54' E 030°13'0 0.0
2016-Nov-12 11:32N 59°54' E 030°13'0 0.0
2016-Nov-12 09:32N 59°54' E 030°13'  

Dump ship's entire track history